createdAt,value
2019-01-12T00:00:14.181Z,3.00
2019-01-12T00:01:14.168Z,3.10
2019-01-12T00:02:14.874Z,3.50
2019-01-12T00:03:14.155Z,3.50
2019-01-12T00:04:14.107Z,3.80
2019-01-12T00:05:14.149Z,3.80
2019-01-12T00:06:14.084Z,4.40
2019-01-12T00:07:14.076Z,4.40
2019-01-12T00:08:14.102Z,4.50
2019-01-12T00:09:14.098Z,4.40
2019-01-12T00:10:14.048Z,4.80
2019-01-12T00:11:14.025Z,4.80
2019-01-12T00:12:14.069Z,5.10
2019-01-12T00:13:14.038Z,4.90
2019-01-12T00:14:13.999Z,5.40
2019-01-12T00:15:13.982Z,5.40
2019-01-12T00:16:14.054Z,5.70
2019-01-12T01:38:35.739Z,5.90
2019-01-12T05:58:48.882Z,10.50
2019-01-12T06:07:42.394Z,10.30
2019-01-12T06:08:43.364Z,10.30
2019-01-12T06:21:22.470Z,7.90
2019-01-12T06:22:21.955Z,9.10
2019-01-12T06:23:21.949Z,8.60
2019-01-12T06:24:21.882Z,8.20
2019-01-12T06:25:22.204Z,8.90
2019-01-12T06:33:35.601Z,7.70
2019-01-12T06:34:35.450Z,8.60
2019-01-12T06:35:35.547Z,8.10
2019-01-12T06:36:35.386Z,8.70
2019-01-12T06:37:35.377Z,8.90
2019-01-12T06:38:35.368Z,9.60
2019-01-12T06:39:35.312Z,9.50
2019-01-12T06:40:35.305Z,9.40
2019-01-12T06:41:35.289Z,9.80
2019-01-12T06:42:35.341Z,10.80
2019-01-12T06:43:35.332Z,10.40
2019-01-12T06:44:35.293Z,11.10
2019-01-12T06:45:35.252Z,10.80
2019-01-12T06:46:35.247Z,10.80
2019-01-12T06:47:35.249Z,10.90
2019-01-12T06:48:35.228Z,10.70
2019-01-12T06:49:35.255Z,10.50
2019-01-12T06:50:35.231Z,10.70
2019-01-12T06:51:35.188Z,10.80
2019-01-12T06:52:35.430Z,12.00
2019-01-12T06:53:35.246Z,11.70
2019-01-12T06:55:46.155Z,12.30
2019-01-12T06:56:45.515Z,12.20
2019-01-12T06:57:45.497Z,12.20
2019-01-12T06:58:45.522Z,12.70
2019-01-12T06:59:45.455Z,12.10
2019-01-12T07:00:45.375Z,12.20
2019-01-12T07:01:45.329Z,12.00
2019-01-12T07:02:45.322Z,11.60
2019-01-12T07:03:45.479Z,12.30
2019-01-12T07:04:45.354Z,11.60
2019-01-12T07:05:45.351Z,11.50
2019-01-12T07:06:48.086Z,11.50
2019-01-12T07:07:45.346Z,12.10
2019-01-12T07:08:45.262Z,12.10
2019-01-12T07:09:45.241Z,12.30
2019-01-12T07:10:45.357Z,11.40
2019-01-12T07:11:47.187Z,12.00
2019-01-12T07:12:45.471Z,12.20
2019-01-12T07:13:45.257Z,12.90
2019-01-12T07:14:45.210Z,13.10
2019-01-12T07:15:45.181Z,13.80
2019-01-12T07:16:45.183Z,13.00
2019-01-12T07:17:46.116Z,13.30
2019-01-12T07:18:45.162Z,13.80
2019-01-12T07:19:45.169Z,14.60
2019-01-12T07:20:45.173Z,14.10
2019-01-12T07:21:45.132Z,14.10
2019-01-12T07:22:46.347Z,15.10
2019-01-12T07:23:45.095Z,14.70
2019-01-12T07:24:45.200Z,14.80
2019-01-12T07:25:45.139Z,15.00
2019-01-12T07:26:45.146Z,14.80
2019-01-12T07:27:45.048Z,15.30
2019-01-12T07:28:45.156Z,14.80
2019-01-12T07:29:45.033Z,14.70
2019-01-12T07:30:45.185Z,15.20
2019-01-12T07:31:45.083Z,15.50
2019-01-12T07:32:45.044Z,16.70
2019-01-12T07:33:45.015Z,16.00
2019-01-12T07:34:44.981Z,16.70
2019-01-12T07:35:44.971Z,16.80
2019-01-12T07:36:45.632Z,18.40
2019-01-12T07:37:44.980Z,19.40
2019-01-12T07:38:44.939Z,19.10
2019-01-12T07:39:44.933Z,19.50
2019-01-12T07:40:44.936Z,20.80
2019-01-12T07:41:44.905Z,21.30
2019-01-12T07:42:44.948Z,21.00
2019-01-12T07:43:44.876Z,21.40
2019-01-12T07:44:44.871Z,21.20
2019-01-12T07:45:44.938Z,21.70
2019-01-12T07:46:44.870Z,22.10
2019-01-12T07:47:44.856Z,22.50
2019-01-12T07:48:44.842Z,21.80
2019-01-12T07:49:44.822Z,21.90
2019-01-12T07:50:44.808Z,22.70
2019-01-12T07:51:44.790Z,23.50
2019-01-12T07:52:44.819Z,23.90
2019-01-12T07:53:44.828Z,23.70
2019-01-12T07:54:44.796Z,23.80
2019-01-12T07:55:44.752Z,23.70
2019-01-12T07:56:44.745Z,24.10
2019-01-12T07:57:44.735Z,25.20
2019-01-12T07:58:44.723Z,23.80
2019-01-12T07:59:44.726Z,24.40
2019-01-12T08:01:55.850Z,22.00
2019-01-12T08:02:55.592Z,22.90
2019-01-12T08:03:55.334Z,22.90
2019-01-12T08:04:55.358Z,22.30
2019-01-12T08:05:55.360Z,22.30
2019-01-12T08:06:55.466Z,22.50
2019-01-12T08:07:55.188Z,21.70
2019-01-12T08:08:55.251Z,22.90
2019-01-12T08:09:55.215Z,22.40
2019-01-12T08:10:55.186Z,21.70
2019-01-12T08:11:56.237Z,22.60
2019-01-12T08:12:55.247Z,22.40
2019-01-12T08:13:55.255Z,22.30
2019-01-12T08:14:55.153Z,23.00
2019-01-12T08:15:55.138Z,23.40
2019-01-12T08:16:55.305Z,22.40
2019-01-12T08:21:18.971Z,20.40
2019-01-12T08:22:18.128Z,23.20
2019-01-12T08:23:17.708Z,22.30
2019-01-12T08:24:17.728Z,20.80
2019-01-12T08:25:17.602Z,20.60
2019-01-12T08:26:17.823Z,20.00
2019-01-12T08:30:39.972Z,20.10
2019-01-12T08:31:39.666Z,20.90
2019-01-12T08:32:39.594Z,22.40
2019-01-12T08:34:40.874Z,22.10
2019-01-12T08:35:39.282Z,21.80
2019-01-12T08:36:39.286Z,21.20
2019-01-12T08:37:39.267Z,22.10
2019-01-12T09:08:26.447Z,19.50
2019-01-12T09:13:40.690Z,24.70
2019-01-12T09:14:30.804Z,26.20
2019-01-12T09:19:16.401Z,25.50
2019-01-12T09:20:15.562Z,25.90
2019-01-12T09:24:18.705Z,25.30
2019-01-12T09:25:18.460Z,25.70
2019-01-12T09:26:18.821Z,25.70
2019-01-12T09:49:59.639Z,25.70
2019-01-12T09:51:08.266Z,32.10
2019-01-12T09:51:59.286Z,33.10
2019-01-12T09:56:14.589Z,29.80
2019-01-12T09:57:15.785Z,34.30
2019-01-12T09:59:27.128Z,28.30
2019-01-12T10:00:26.773Z,31.60
2019-01-12T10:01:28.220Z,32.90
2019-01-12T10:02:29.235Z,32.80
2019-01-12T10:03:26.483Z,33.40
2019-01-12T10:04:26.478Z,33.50
2019-01-12T10:05:26.438Z,33.50
2019-01-12T10:06:27.020Z,33.30
2019-01-12T10:07:26.401Z,32.90
2019-01-12T10:09:48.253Z,32.20
2019-01-12T10:10:47.936Z,33.70
2019-01-12T10:18:01.302Z,29.40
2019-01-12T10:19:01.509Z,35.40
2019-01-12T10:20:00.967Z,34.70
2019-01-12T10:21:06.450Z,33.50
2019-01-12T10:28:32.095Z,31.30
2019-01-12T10:29:31.614Z,31.90
2019-01-12T10:30:31.613Z,32.60
2019-01-12T10:32:48.108Z,28.00
2019-01-12T10:33:47.796Z,32.80
2019-01-12T10:34:47.658Z,34.30
2019-01-12T10:37:04.339Z,34.10
2019-01-12T10:38:04.293Z,36.10
2019-01-12T10:42:11.026Z,25.30
2019-01-12T10:46:16.135Z,33.10
2019-01-12T10:49:47.358Z,36.10
2019-01-12T10:50:53.695Z,39.30
2019-01-12T10:51:45.027Z,38.20
2019-01-12T10:54:51.067Z,37.50
2019-01-12T10:57:17.571Z,34.50
2019-01-12T10:58:16.824Z,38.50
2019-01-12T10:59:19.112Z,39.50
2019-01-12T11:02:38.013Z,36.00
2019-01-12T11:04:58.833Z,35.50
2019-01-12T11:10:04.094Z,36.10
2019-01-12T11:11:01.001Z,39.10
2019-01-12T11:12:00.131Z,37.70
2019-01-12T11:13:00.080Z,39.20
2019-01-12T11:13:59.895Z,40.00
2019-01-12T11:18:22.848Z,34.00
2019-01-12T11:19:22.738Z,39.60
2019-01-12T11:20:22.567Z,38.30
2019-01-12T11:21:23.364Z,39.20
2019-01-12T11:24:51.224Z,34.10
2019-01-12T11:25:49.479Z,39.40
2019-01-12T11:26:49.074Z,40.00
2019-01-12T11:27:48.791Z,39.40
2019-01-12T11:28:48.859Z,39.70
2019-01-12T11:29:48.947Z,38.20
2019-01-12T11:30:48.833Z,39.70
2019-01-12T11:31:49.523Z,40.40
2019-01-12T11:32:48.737Z,39.70
2019-01-12T11:33:48.747Z,37.20
2019-01-12T11:34:48.716Z,39.90
2019-01-12T11:35:48.759Z,40.60
2019-01-12T11:36:49.805Z,39.90
2019-01-12T11:37:48.678Z,39.10
2019-01-12T11:38:48.774Z,40.00
2019-01-12T11:39:48.658Z,41.70
2019-01-12T11:40:48.792Z,40.50
2019-01-12T11:41:48.743Z,40.20
2019-01-12T11:42:48.668Z,41.20
2019-01-12T11:43:48.618Z,39.00
2019-01-12T11:44:48.605Z,37.10
2019-01-12T11:47:15.928Z,40.10
2019-01-12T11:48:15.446Z,41.60
2019-01-12T11:49:15.487Z,41.20
2019-01-12T11:50:29.161Z,41.30
2019-01-12T11:51:15.660Z,38.90
2019-01-12T11:52:15.404Z,40.00
2019-01-12T11:53:16.225Z,41.10
2019-01-12T11:54:15.279Z,40.30
2019-01-12T11:55:15.223Z,41.00
2019-01-12T11:56:15.222Z,41.10
2019-01-12T11:57:19.106Z,38.60
2019-01-12T11:58:15.220Z,39.20
2019-01-12T11:59:15.220Z,40.70
2019-01-12T12:00:15.178Z,40.90
2019-01-12T12:02:46.111Z,37.40
2019-01-12T12:03:27.609Z,39.70
2019-01-12T12:04:30.446Z,39.30
2019-01-12T12:07:51.617Z,35.60
2019-01-12T12:08:45.497Z,42.70
2019-01-12T12:09:45.646Z,41.20
2019-01-12T12:10:46.185Z,38.20
2019-01-12T12:11:45.301Z,37.00
2019-01-12T12:12:45.303Z,40.80
2019-01-12T12:13:45.347Z,41.10
2019-01-12T12:14:47.394Z,39.70
2019-01-12T12:17:14.793Z,36.30
2019-01-12T12:17:56.071Z,37.90
2019-01-12T12:19:00.144Z,34.00
2019-01-12T12:19:56.074Z,35.50
2019-01-12T12:20:56.068Z,39.00
2019-01-12T12:21:56.190Z,35.40
2019-01-12T12:23:00.733Z,35.50
2019-01-12T12:23:56.019Z,36.60
2019-01-12T12:24:56.075Z,36.20
2019-01-12T12:25:56.062Z,35.10
2019-01-12T12:26:55.923Z,36.60
2019-01-12T12:30:42.889Z,30.60
2019-01-12T12:36:00.189Z,29.60
2019-01-12T12:36:59.625Z,33.40
2019-01-12T12:37:59.725Z,33.30
2019-01-12T12:49:39.250Z,28.80
2019-01-12T12:50:38.660Z,33.60
2019-01-12T12:51:38.787Z,32.50
2019-01-12T12:52:38.723Z,29.80
2019-01-12T12:53:38.733Z,32.00
2019-01-12T12:54:38.585Z,32.00
2019-01-12T12:55:38.735Z,30.40
2019-01-12T12:56:39.485Z,30.60
2019-01-12T12:57:41.528Z,32.20
2019-01-12T12:58:38.553Z,29.40
2019-01-12T12:59:38.573Z,28.70
2019-01-12T13:00:38.578Z,28.60
2019-01-12T13:01:38.578Z,26.60
2019-01-12T13:02:38.535Z,28.50
2019-01-12T13:03:38.481Z,28.30
2019-01-12T13:04:38.479Z,28.20
2019-01-12T13:05:38.669Z,28.50
2019-01-12T13:06:38.511Z,27.70
2019-01-12T13:07:38.614Z,28.60
2019-01-12T13:08:38.472Z,30.70
2019-01-12T13:09:38.414Z,28.90
2019-01-12T13:10:38.414Z,30.00
2019-01-12T13:11:38.834Z,28.70
2019-01-12T13:30:36.897Z,24.30
2019-01-12T13:32:51.471Z,20.40
2019-01-12T13:35:26.060Z,23.50
2019-01-12T13:37:46.365Z,21.80
2019-01-12T13:38:41.222Z,24.00
2019-01-12T13:39:41.064Z,24.60
2019-01-12T13:40:41.017Z,25.10
2019-01-12T13:41:41.085Z,24.00
2019-01-12T13:42:40.969Z,22.90
2019-01-12T13:43:40.889Z,23.60
2019-01-12T13:44:40.940Z,24.80
2019-01-12T13:45:40.979Z,24.60
2019-01-12T13:46:40.951Z,23.90
2019-01-12T13:47:40.982Z,23.60
2019-01-12T13:48:40.888Z,24.30
2019-01-12T13:49:40.891Z,24.30
2019-01-12T13:50:41.041Z,23.90
2019-01-12T14:25:46.188Z,22.20
2019-01-12T14:32:08.646Z,27.50
2019-01-12T14:33:07.847Z,29.50
2019-01-12T14:34:12.441Z,30.60
2019-01-12T14:35:07.674Z,28.70
2019-01-12T14:36:07.574Z,27.70
2019-01-12T14:37:08.203Z,27.60
2019-01-12T14:38:10.337Z,27.90
2019-01-12T14:39:07.556Z,28.30
2019-01-12T14:40:07.507Z,29.40
2019-01-12T14:41:07.563Z,29.70
2019-01-12T14:42:07.539Z,30.10
2019-01-12T14:43:08.186Z,30.80
2019-01-12T14:44:07.614Z,30.50
2019-01-12T14:45:08.285Z,31.10
2019-01-12T14:46:07.465Z,31.10
2019-01-12T14:47:07.549Z,31.50
2019-01-12T14:48:07.546Z,33.10
2019-01-12T14:49:07.410Z,34.20
2019-01-12T14:50:07.500Z,33.40
2019-01-12T14:52:59.259Z,25.10
2019-01-12T14:53:58.638Z,36.90
2019-01-12T14:54:58.582Z,37.50
2019-01-12T14:55:58.484Z,38.40
2019-01-12T14:56:58.771Z,37.70
2019-01-12T14:58:02.716Z,38.40
2019-01-12T14:58:58.545Z,38.90
2019-01-12T14:59:58.351Z,38.70
2019-01-12T15:00:58.354Z,39.00
2019-01-12T15:01:58.342Z,37.10
2019-01-12T15:02:58.317Z,38.00
2019-01-12T15:03:58.291Z,36.40
2019-01-12T15:04:58.292Z,38.30
2019-01-12T15:05:58.262Z,38.00
2019-01-12T15:06:58.534Z,39.60
2019-01-12T15:07:58.233Z,38.70
2019-01-12T15:08:58.264Z,39.80
2019-01-12T15:09:58.208Z,39.90
2019-01-12T15:10:58.272Z,39.00
2019-01-12T15:11:58.387Z,39.40
2019-01-12T15:12:58.204Z,37.20
2019-01-12T15:13:58.225Z,37.10
2019-01-12T15:14:58.195Z,36.50
2019-01-12T15:15:58.156Z,35.30
2019-01-12T15:16:58.141Z,35.70
2019-01-12T15:17:58.125Z,36.00
2019-01-12T15:18:58.190Z,32.80
2019-01-12T15:19:58.099Z,33.50
2019-01-12T15:20:58.098Z,33.60
2019-01-12T15:21:58.083Z,32.50
2019-01-12T15:22:58.076Z,31.60
2019-01-12T15:23:58.059Z,31.70
2019-01-12T15:24:58.046Z,30.40
2019-01-12T15:25:58.097Z,30.00
2019-01-12T15:26:59.932Z,23.40
2019-01-12T15:27:58.047Z,21.50
2019-01-12T15:30:10.525Z,14.40
2019-01-12T15:31:10.155Z,16.80
2019-01-12T15:32:10.035Z,17.80
2019-01-12T15:33:10.090Z,18.40
2019-01-12T15:34:09.985Z,18.10
2019-01-12T15:35:09.949Z,18.70
2019-01-12T15:36:09.929Z,17.50
2019-01-12T15:37:09.929Z,16.60
2019-01-12T15:38:09.973Z,16.40
2019-01-12T15:39:09.926Z,15.50
2019-01-12T15:40:09.881Z,14.70
2019-01-12T15:41:09.911Z,14.50
2019-01-12T15:42:09.851Z,13.70
2019-01-12T15:43:09.856Z,13.50
2019-01-12T15:44:09.853Z,13.50
2019-01-12T15:45:09.825Z,13.60
2019-01-12T15:46:09.850Z,13.30
2019-01-12T15:47:09.803Z,13.70
2019-01-12T15:48:09.817Z,12.30
2019-01-12T15:49:09.819Z,12.50
2019-01-12T15:50:09.775Z,11.60
2019-01-12T15:51:09.760Z,10.90
2019-01-12T15:52:09.838Z,10.30
2019-01-12T15:53:09.807Z,10.90
2019-01-12T15:54:09.727Z,9.50
2019-01-12T15:55:09.725Z,10.20
2019-01-12T15:56:09.712Z,9.60
2019-01-12T15:57:09.718Z,10.10
2019-01-12T15:58:15.988Z,9.60
2019-01-12T15:59:10.750Z,9.40
2019-01-12T16:00:09.660Z,9.70
2019-01-12T16:01:09.797Z,9.00
2019-01-12T16:02:09.636Z,9.80
2019-01-12T16:03:09.657Z,9.70
2019-01-12T16:04:09.648Z,9.50
2019-01-12T16:05:09.632Z,9.90
2019-01-12T16:06:09.651Z,10.20
2019-01-12T16:07:09.625Z,10.30
2019-01-12T16:08:09.741Z,9.50
2019-01-12T16:09:09.556Z,10.00
2019-01-12T16:10:09.552Z,10.10
2019-01-12T16:11:09.608Z,10.10
2019-01-12T16:12:09.520Z,10.30
2019-01-12T16:13:09.608Z,10.70
2019-01-12T16:14:09.504Z,11.00
2019-01-12T16:15:09.505Z,11.20
2019-01-12T16:16:09.527Z,10.80
2019-01-12T16:17:11.021Z,12.00
2019-01-12T16:18:09.468Z,12.00
2019-01-12T16:19:09.451Z,11.70
2019-01-12T16:20:09.480Z,12.30
2019-01-12T16:21:09.471Z,12.80
2019-01-12T16:22:09.478Z,13.40
2019-01-12T16:23:09.422Z,14.40
2019-01-12T16:24:09.403Z,14.60
2019-01-12T16:25:09.395Z,14.10
2019-01-12T16:26:09.603Z,14.70
2019-01-12T16:27:09.415Z,15.30
2019-01-12T16:28:09.384Z,15.30
2019-01-12T16:29:09.365Z,16.40
2019-01-12T16:30:09.361Z,15.60
2019-01-12T16:31:09.488Z,16.90
2019-01-12T16:32:09.382Z,17.70
2019-01-12T16:33:10.006Z,18.30
2019-01-12T16:34:09.308Z,17.60
2019-01-12T16:35:09.568Z,19.40
2019-01-12T16:36:09.280Z,18.60
2019-01-12T16:37:09.308Z,18.50
2019-01-12T16:38:09.275Z,19.00
2019-01-12T16:39:09.223Z,18.80
2019-01-12T16:40:09.290Z,19.40
2019-01-12T16:41:09.216Z,17.90
2019-01-12T16:42:09.234Z,18.10
2019-01-12T16:43:09.187Z,17.50
2019-01-12T16:44:09.179Z,17.60
2019-01-12T16:45:09.302Z,17.10
2019-01-12T16:46:09.231Z,17.80
2019-01-12T16:47:09.170Z,17.10
2019-01-12T16:48:09.140Z,17.20
2019-01-12T16:49:09.155Z,16.60
2019-01-12T16:50:09.112Z,17.20
2019-01-12T16:51:09.107Z,17.50
2019-01-12T16:52:09.095Z,15.70
2019-01-12T16:53:09.104Z,15.80
2019-01-12T16:54:09.130Z,15.30
2019-01-12T16:55:09.069Z,15.30
2019-01-12T16:56:09.048Z,15.00
2019-01-12T16:57:09.038Z,13.80
2019-01-12T16:58:09.044Z,13.70
2019-01-12T16:59:09.019Z,13.40
2019-01-12T17:00:09.155Z,13.40
2019-01-12T17:01:09.141Z,12.60
2019-01-12T17:02:09.075Z,12.80
2019-01-12T17:03:08.975Z,12.40
2019-01-12T17:09:36.941Z,11.00
2019-01-12T17:10:36.697Z,9.80
2019-01-12T17:11:36.843Z,9.70
2019-01-12T17:12:36.394Z,9.30
2019-01-12T17:13:36.294Z,8.00
2019-01-12T17:14:36.294Z,9.80
2019-01-12T17:15:36.285Z,7.40
2019-01-12T17:16:36.366Z,8.20
2019-01-12T17:17:36.231Z,8.40
2019-01-12T17:18:36.221Z,6.70
2019-01-12T17:19:36.197Z,7.40
2019-01-12T17:20:36.224Z,6.50
2019-01-12T17:21:36.181Z,6.90
2019-01-12T17:22:36.207Z,6.20
2019-01-12T17:23:36.168Z,6.50
2019-01-12T17:24:36.157Z,6.70
2019-01-12T17:25:36.180Z,5.40
2019-01-12T17:26:36.120Z,5.50
2019-01-12T17:30:22.778Z,4.00
2019-01-12T17:31:22.330Z,4.90
2019-01-12T17:32:22.281Z,4.20
2019-01-12T17:33:22.382Z,4.10
2019-01-12T17:34:22.219Z,4.50
2019-01-12T17:35:22.199Z,4.70
2019-01-12T17:36:22.233Z,3.80
2019-01-12T17:37:22.128Z,4.30
2019-01-12T17:38:22.135Z,3.90
2019-01-12T17:39:22.117Z,3.70
2019-01-12T17:40:22.206Z,3.50
2019-01-12T17:41:22.085Z,3.50
2019-01-12T17:42:22.102Z,3.10
2019-01-12T17:43:22.076Z,3.20
2019-01-12T17:44:22.153Z,3.50
2019-01-12T17:45:22.243Z,2.70
2019-01-12T17:50:58.091Z,2.90
2019-01-12T17:51:57.041Z,3.40
2019-01-12T17:52:57.005Z,3.00
2019-01-12T17:55:17.294Z,2.50
2019-01-12T18:08:46.523Z,2.70
2019-01-12T18:12:45.085Z,4.20
2019-01-12T18:13:47.402Z,3.30
2019-01-12T18:14:44.892Z,3.30
2019-01-12T18:44:36.134Z,2.60
2019-01-12T18:45:36.418Z,6.10
2019-01-12T18:48:36.344Z,10.90
2019-01-12T18:49:35.914Z,8.80
2019-01-12T18:50:35.863Z,9.80
2019-01-12T18:51:35.884Z,8.90
2019-01-12T18:52:35.780Z,9.00
2019-01-12T18:53:35.761Z,7.50
2019-01-12T18:54:35.785Z,7.40
2019-01-12T18:55:35.747Z,6.90
2019-01-12T18:56:35.728Z,6.30
2019-01-12T18:57:35.757Z,6.80
2019-01-12T18:58:35.699Z,7.20
2019-01-12T18:59:35.717Z,7.50
2019-01-12T19:00:35.685Z,7.20
2019-01-12T19:01:35.756Z,8.20
2019-01-12T19:02:44.624Z,8.60
2019-01-12T19:03:35.731Z,8.00
2019-01-12T19:04:35.717Z,8.20
2019-01-12T19:05:35.750Z,8.40
2019-01-12T19:06:35.639Z,8.50
2019-01-12T19:07:35.650Z,8.80
2019-01-12T19:08:35.647Z,8.60
2019-01-12T19:10:36.595Z,9.00
2019-01-12T19:22:04.127Z,7.20
2019-01-12T19:23:03.799Z,8.20
2019-01-12T19:24:03.644Z,7.70
2019-01-12T19:25:04.211Z,8.10
2019-01-12T19:26:03.689Z,8.20
2019-01-12T19:27:03.591Z,7.90
2019-01-12T19:28:03.528Z,7.70
2019-01-12T19:29:06.646Z,8.00
2019-01-12T19:31:32.148Z,7.40
2019-01-12T19:32:31.495Z,7.50
2019-01-12T20:29:22.301Z,6.70
2019-01-12T20:30:21.916Z,6.80
2019-01-12T20:31:21.821Z,7.50
2019-01-12T20:32:22.657Z,9.50
2019-01-12T20:33:21.883Z,9.50
2019-01-12T20:34:21.718Z,10.60
2019-01-12T20:35:21.654Z,11.50
2019-01-12T20:36:21.724Z,12.70
2019-01-12T20:37:21.634Z,12.50
2019-01-12T20:38:21.662Z,13.60
2019-01-12T20:39:21.636Z,13.10
2019-01-12T20:40:21.780Z,13.00
2019-01-12T20:41:21.607Z,12.90
2019-01-12T20:43:50.148Z,10.00
2019-01-12T20:44:50.696Z,12.30
2019-01-12T20:45:49.992Z,12.30
2019-01-12T21:29:18.282Z,8.10
2019-01-12T21:30:17.035Z,7.40
2019-01-12T21:31:17.170Z,8.30
2019-01-12T21:33:56.604Z,7.40
2019-01-12T21:41:48.908Z,6.10
2019-01-12T21:44:22.031Z,8.10
2019-01-12T21:45:21.906Z,8.90
2019-01-12T21:46:22.469Z,8.50
2019-01-12T21:47:22.297Z,9.30
2019-01-12T21:48:21.662Z,8.80
2019-01-12T21:49:21.855Z,9.00
2019-01-12T21:50:21.649Z,9.10
2019-01-12T21:51:21.702Z,8.90
2019-01-12T21:52:21.661Z,8.80
2019-01-12T21:53:22.905Z,8.90
2019-01-12T21:54:21.683Z,9.60
2019-01-12T21:55:21.585Z,8.90
2019-01-12T21:56:21.597Z,9.20
2019-01-12T21:57:21.580Z,9.00
2019-01-12T21:58:21.593Z,9.50
2019-01-12T21:59:21.693Z,8.20
2019-01-12T22:00:21.558Z,8.60
2019-01-12T22:01:22.370Z,9.40
2019-01-12T22:04:22.947Z,7.80
2019-01-12T22:05:21.818Z,9.10
2019-01-12T22:06:26.551Z,9.70
2019-01-12T22:07:21.580Z,9.60
2019-01-12T22:08:21.676Z,9.30
2019-01-12T22:09:21.669Z,9.50
2019-01-12T22:10:21.583Z,10.30
2019-01-12T22:11:21.618Z,9.30
2019-01-12T22:12:21.529Z,9.50
2019-01-12T22:13:21.572Z,10.20
2019-01-12T22:14:21.902Z,9.60
2019-01-12T22:15:21.577Z,9.30
2019-01-12T22:16:21.484Z,9.20
2019-01-12T22:17:21.488Z,9.40
2019-01-12T22:18:21.492Z,8.90
2019-01-12T22:19:21.539Z,9.50
2019-01-12T22:20:21.451Z,9.30
2019-01-12T22:21:21.506Z,8.80
2019-01-12T22:22:21.449Z,8.50
2019-01-12T22:23:24.060Z,8.70
2019-01-12T22:27:30.945Z,5.60
2019-01-12T22:28:30.498Z,5.70
2019-01-12T22:29:36.170Z,5.70
2019-01-12T22:35:46.280Z,4.80
2019-01-12T22:36:50.951Z,4.30
2019-01-12T22:41:55.109Z,3.60
2019-01-12T22:42:58.458Z,5.80
2019-01-12T22:43:56.450Z,5.70
2019-01-12T22:50:27.796Z,8.10
2019-01-12T22:51:28.066Z,9.10
2019-01-12T22:52:27.831Z,9.40
2019-01-12T22:53:27.842Z,9.40
2019-01-12T22:54:29.864Z,9.70
2019-01-12T22:55:27.629Z,10.00
2019-01-12T22:56:27.583Z,10.30
2019-01-12T22:57:27.607Z,11.00
2019-01-12T22:58:27.618Z,11.40
2019-01-12T22:59:27.560Z,11.70
2019-01-12T23:00:27.640Z,11.70
2019-01-12T23:01:27.524Z,12.40
2019-01-12T23:02:28.199Z,12.40
2019-01-12T23:03:27.503Z,12.00
2019-01-12T23:04:27.511Z,11.80
2019-01-12T23:05:27.553Z,12.90
2019-01-12T23:06:27.492Z,11.90
2019-01-12T23:07:27.474Z,12.40
2019-01-12T23:08:27.491Z,11.80
2019-01-12T23:09:27.496Z,12.40
2019-01-12T23:10:27.478Z,12.70
2019-01-12T23:11:27.418Z,13.10
2019-01-12T23:12:27.438Z,12.80
2019-01-12T23:13:27.417Z,12.00
2019-01-12T23:14:27.392Z,12.30
2019-01-12T23:15:28.566Z,12.60
2019-01-12T23:16:27.414Z,12.10
2019-01-12T23:17:27.493Z,12.30
2019-01-12T23:20:07.113Z,10.40
2019-01-12T23:21:07.121Z,12.90
2019-01-12T23:22:06.899Z,12.20
2019-01-12T23:49:16.078Z,13.40
2019-01-12T23:50:16.000Z,11.80
2019-01-12T23:51:16.189Z,12.10
2019-01-12T23:52:17.662Z,11.90
2019-01-12T23:53:15.942Z,10.20
2019-01-12T23:54:15.844Z,10.60
2019-01-12T23:55:15.965Z,10.60
2019-01-12T23:56:15.827Z,10.90
2019-01-12T23:57:15.814Z,10.90
2019-01-12T23:58:15.923Z,11.10
2019-01-12T23:59:16.063Z,10.10
